Campanya Meteocatpedra
Centenari de l'SMC: 100 anys mirant el cel

Dades de l'estació automàtica Tivissa

?
?

Resum diari

23:00 TU
Dades diàries de l'estació meteorològica
Temperatura mitjana 18.4 °C
Temperatura màxima 24.0 °C 12:53 TU
Temperatura mínima 14.0 °C 5:30 TU
Humitat relativa mitjana 55%
Precipitació acumulada 0.0 mm
Ratxa màxima del vent (10 m) 36.0 km/h - 134º 13:28 TU
Irradiació solar global 20.3 MJ/m2

El tram horari està expressat en Temps Universal (TU). Cal sumar una hora en horari d'hivern i dues en horari d'estiu per passar a l'hora oficial.

Tivissa

Metadades estació meteorològica
Municipi Tivissa
Comarca Ribera d'Ebre
Altitud 317 m
Data alta 26.03.2015
Estat actual Operativa
Dades de període
Període
TU
TM
°C
TX
°C
TN
°C
HRM
%
PPT
mm
VVM (10 m)
km/h
DVM (10 m)
graus
VVX (10 m)
km/h
RS
W/m2
00:00 - 00:30 16.8 17.2 16.2 63 0.0 4.7 165 11.5 0
00:30 - 01:00 16.2 16.4 15.8 66 0.0 4.3 147 16.9 0
01:00 - 01:30 16.3 16.7 15.9 64 0.0 7.2 181 21.2 0
01:30 - 02:00 15.8 16.4 15.6 66 0.0 5.8 144 16.9 0
02:00 - 02:30 15.5 15.7 15.1 67 0.0 3.2 171 13.7 0
02:30 - 03:00 15.9 16.2 15.2 64 0.0 9.7 202 19.8 0
03:00 - 03:30 15.6 16.1 15.2 65 0.0 6.1 175 15.8 0
03:30 - 04:00 15.3 15.5 15.0 66 0.0 3.2 206 11.2 0
04:00 - 04:30 14.9 15.2 14.5 69 0.0 3.2 193 9.4 0
04:30 - 05:00 14.8 15.2 14.4 69 0.0 3.6 156 9.0 0
05:00 - 05:30 14.6 15.0 14.1 70 0.0 2.5 206 8.6 0
05:30 - 06:00 14.4 14.8 14.0 72 0.0 4.0 144 16.2 4
06:00 - 06:30 15.1 15.2 14.8 69 0.0 8.3 187 30.2 50
06:30 - 07:00 15.7 15.9 15.3 68 0.0 9.4 190 19.8 118
07:00 - 07:30 16.2 16.6 15.8 68 0.0 6.1 171 27.4 198
07:30 - 08:00 16.6 17.1 16.4 67 0.0 6.5 169 18.7 254
08:00 - 08:30 17.7 18.1 17.0 65 0.0 7.2 167 27.4 448
08:30 - 09:00 18.6 19.2 18.0 62 0.0 8.3 141 25.2 545
09:00 - 09:30 19.3 20.0 19.0 59 0.0 11.9 141 29.2 641
09:30 - 10:00 20.1 20.6 19.6 57 0.0 10.1 139 23.0 689
10:00 - 10:30 20.7 21.1 20.3 54 0.0 10.8 137 35.6 737
10:30 - 11:00 21.2 21.9 20.7 51 0.0 13.3 138 28.4 767
11:00 - 11:30 21.5 22.0 21.1 49 0.0 17.6 133 33.8 782
11:30 - 12:00 22.4 23.1 22.0 47 0.0 11.5 136 33.1 795
12:00 - 12:30 22.9 23.5 22.3 44 0.0 12.2 139 32.4 775
12:30 - 13:00 23.3 24.0 22.4 42 0.0 10.4 133 26.6 713
13:00 - 13:30 22.8 23.7 22.0 42 0.0 13.3 133 36.0 566
13:30 - 14:00 23.2 23.6 22.7 41 0.0 14.0 135 30.6 632
14:00 - 14:30 23.7 24.0 23.3 39 0.0 11.5 144 29.9 637
14:30 - 15:00 23.4 23.9 23.1 37 0.0 13.3 134 29.9 554
15:00 - 15:30 23.3 23.5 23.0 37 0.0 11.2 138 30.2 468
15:30 - 16:00 23.1 23.4 22.7 35 0.0 12.2 136 27.0 378
16:00 - 16:30 22.7 22.9 22.5 35 0.0 9.7 142 28.8 278
16:30 - 17:00 21.9 22.3 21.5 35 0.0 9.4 156 31.0 176
17:00 - 17:30 21.0 21.4 20.7 39 0.0 8.6 162 28.8 86
17:30 - 18:00 20.0 20.6 19.5 42 0.0 8.3 166 22.3 16
18:00 - 18:30 19.0 19.5 18.8 46 0.0 5.0 145 16.9 0
18:30 - 19:00 18.4 18.8 17.9 48 0.0 6.5 144 16.6 0
19:00 - 19:30 17.8 18.0 17.5 49 0.0 6.8 157 22.7 0
19:30 - 20:00 17.2 17.4 17.1 52 0.0 6.8 131 18.7 0
20:00 - 20:30 17.3 17.5 17.1 52 0.0 9.4 133 22.3 0
20:30 - 21:00 17.0 17.1 16.9 53 0.0 9.7 139 28.1 0
21:00 - 21:30 16.5 16.9 16.0 56 0.0 9.0 139 27.4 0
21:30 - 22:00 15.9 16.1 15.6 60 0.0 10.8 140 28.4 0
22:00 - 22:30 15.2 15.6 15.0 64 0.0 7.6 138 21.2 0
22:30 - 23:00 14.9 15.2 14.5 65 0.0 9.0 140 19.4 0
23:00 - 23:30 14.2 14.5 14.1 67 0.0 3.6 150 10.1 0

Les dades en taronja només han passat un control de qualitat automàtic. Resta pendent la seva validació definitiva.